• Join FlightAware (Why Join?)
  • Login
  • US Flag 
10:33AM EST


 

Airport Tracker/Info


-or-


 

Live Flight TrackerFlight Track Log ✈ N620ZJ ✈ 01-Aug-2013 ✈ KBOI - KGUC

Flight Track Log - Related Links

Times and Time Zones

All times are in EDT time to prevent confusion due to time zone crossing. See the N620ZJ flight status page for this flight to view local times or setup timezone preferences in your user account.

Time Position Orientation Groundspeed Altitude Reporting Facility
EDT Latitude Longitude Course Direction KTS MPH feet Rate Location/Type
07:57PM 39.7914 -109.4897 130° Southeast 167 192 13,500  Level Salt Lake Center
08:02PM 39.6430 -109.2600 133° Southeast 157 181 13,200 -60 Descending FlightAware
08:03PM 39.6280 -109.2330 126° Southeast 159 183 13,200  Level FlightAware
08:03PM 39.6110 -109.2040 127° Southeast 157 181 13,200  Level FlightAware
08:04PM 39.5950 -109.1810 132° Southeast 154 177 13,200  Level FlightAware
08:05PM 39.5780 -109.1580 134° Southeast 154 177 13,200 60 Level FlightAware
08:05PM 39.5600 -109.1340 134° Southeast 154 177 13,300 60 Climbing FlightAware
08:06PM 39.5390 -109.1070 135° Southeast 156 180 13,300  Level FlightAware
08:06PM 39.5210 -109.0850 137° Southeast 159 183 13,300  Level FlightAware
08:07PM 39.5020 -109.0580 132° Southeast 157 181 13,300  Level FlightAware
08:08PM 39.4850 -109.0360 135° Southeast 157 181 13,300  Level FlightAware
08:08PM 39.4660 -109.0110 135° Southeast 159 183 13,300  Level FlightAware
08:09PM 39.4470 -108.9860 135° Southeast 161 185 13,300  Level FlightAware
08:09PM 39.4330 -108.9680 135° Southeast 160 184 13,300  Level FlightAware
08:10PM 39.4110 -108.9390 134° Southeast 161 185 13,300  Level FlightAware
08:11PM 39.3920 -108.9170 138° Southeast 154 177 13,300  Level FlightAware
08:11PM 39.3820 -108.9080 145° Southeast 158 182 13,300  Level FlightAware
08:11PM 39.3680 -108.8790 122° Southeast 165 190 13,300  Level FlightAware
08:12PM 39.3520 -108.8480 124° Southeast 161 185 13,300  Level FlightAware
08:13PM 39.3360 -108.8260 133° Southeast 158 182 13,300  Level FlightAware
08:13PM 39.3150 -108.8000 136° Southeast 157 181 13,300  Level FlightAware
08:14PM 39.2980 -108.7740 130° Southeast 157 181 13,300  Level FlightAware
08:14PM 39.2830 -108.7540 134° Southeast 157 181 13,300  Level FlightAware
08:15PM 39.2650 -108.7280 132° Southeast 160 184 13,300  Level FlightAware
08:15PM 39.2480 -108.7070 136° Southeast 160 184 13,300  Level FlightAware
08:16PM 39.2240 -108.6780 137° Southeast 159 183 13,300  Level FlightAware
08:17PM 39.2040 -108.6560 140° Southeast 158 182 13,300 -180 Level FlightAware
08:17PM 39.1810 -108.6310 140° Southeast 167 192 13,100 -360 Descending FlightAware
08:18PM 39.1580 -108.6080 142° Southeast 165 190 12,900 -360 Descending FlightAware
08:19PM 39.1390 -108.5880 141° Southeast 162 186 12,700 -420 Descending FlightAware
08:19PM 39.1120 -108.5600 141° Southeast 164 189 12,400 -420 Descending FlightAware
08:20PM 39.0920 -108.5380 140° Southeast 165 190 12,200 -360 Descending FlightAware
08:21PM 39.0710 -108.5160 141° Southeast 164 189 12,000 -360 Descending FlightAware
08:21PM 39.0490 -108.4930 141° Southeast 166 191 11,800 -300 Descending FlightAware
08:22PM 39.0320 -108.4740 139° Southeast 166 191 11,700 -360 Descending FlightAware
08:22PM 39.0050 -108.4450 140° Southeast 171 197 11,400 -420 Descending FlightAware
08:23PM 38.9840 -108.4210 138° Southeast 167 192 11,200 -120 Descending FlightAware
08:24PM 38.9650 -108.3980 137° Southeast 156 180 11,300  Climbing FlightAware
08:24PM 38.9490 -108.3770 134° Southeast 155 178 11,200 -120 Descending FlightAware
08:25PM 38.9310 -108.3550 136° Southeast 153 176 11,200  Level FlightAware
08:25PM 38.9170 -108.3280 124° Southeast 151 174 11,200  Level FlightAware
08:26PM 38.9050 -108.3010 120° Southeast 151 174 11,200 -120 Level FlightAware
08:26PM 38.8920 -108.2720 120° Southeast 149 171 11,100 -120 Descending FlightAware
08:27PM 38.8800 -108.2450 120° Southeast 141 162 11,100  Level FlightAware
08:28PM 38.8690 -108.2190 119° Southeast 141 162 11,100  Level FlightAware
08:28PM 38.8580 -108.1950 120° Southeast 143 165 11,100  Level FlightAware
08:29PM 38.8470 -108.1680 118° Southeast 144 166 11,100  Level FlightAware
08:29PM 38.8340 -108.1420 123° Southeast 147 169 11,100  Level FlightAware
08:30PM 38.8240 -108.1190 119° Southeast 152 175 11,100  Level FlightAware
08:31PM 38.8090 -108.0880 122° Southeast 153 176 11,100  Level FlightAware
08:31PM 38.7990 -108.0670 121° Southeast 155 178 11,100  Level FlightAware
08:32PM 38.7840 -108.0360 122° Southeast 156 180 11,100  Level FlightAware
08:32PM 38.7710 -108.0070 120° Southeast 155 178 11,100  Level FlightAware
08:33PM 38.7570 -107.9790 123° Southeast 154 177 11,100  Level FlightAware
08:33PM 38.7440 -107.9510 121° Southeast 154 177 11,100  Level FlightAware
08:34PM 38.7320 -107.9270 123° Southeast 157 181 11,100  Level FlightAware
08:35PM 38.7170 -107.8960 122° Southeast 156 180 11,100  Level FlightAware
08:35PM 38.7050 -107.8720 123° Southeast 157 181 11,100  Level FlightAware
08:36PM 38.6900 -107.8410 122° Southeast 155 178 11,100  Level FlightAware
08:36PM 38.6770 -107.8150 123° Southeast 154 177 11,100  Level FlightAware
08:37PM 38.6730 -107.8050 117° Southeast 154 177 11,100  Level FlightAware
08:37PM 38.6690 -107.7750 100° East 153 176 11,100  Level FlightAware
08:38PM 38.6590 -107.7420 111° Southeast 151 174 11,100  Level FlightAware
08:38PM 38.6520 -107.7180 110° East 151 174 11,100  Level FlightAware
08:39PM 38.6410 -107.6800 110° East 157 181 11,100  Level FlightAware
08:39PM 38.6350 -107.6600 111° Southeast 157 181 11,100  Level FlightAware
08:42PM 38.5910 -107.5290 113° Southeast 149 171 11,100  Level FlightAware
08:43PM 38.5830 -107.4930 106° East 150 173 11,100  Level FlightAware
08:43PM 38.5780 -107.4670 104° East 153 176 11,100  Level FlightAware
08:44PM 38.5710 -107.4330 105° East 155 178 11,100  Level FlightAware
08:44PM 38.5650 -107.4060 106° East 155 178 11,100  Level FlightAware
08:45PM 38.5570 -107.3670 105° East 154 177 11,100  Level FlightAware
08:46PM 38.5510 -107.3400 106° East 154 177 11,100  Level FlightAware
08:46PM 38.5450 -107.3130 106° East 154 177 11,100 -120 Level FlightAware
08:48PM 38.5278 -107.2342 106° East 153 176 10,900 -180 Descending Denver Center